Weather at Southport Airport

Public forecast

Using degrees Celsius for public forecast. Weather courtesy of forecast.io.

Closest aviation weather report (METAR) to Southport Airport

Closest report is Gold Coast Airport, 16.2 nm (29.9 km) SSE. Retrieved 2020/10/30 16:30 UTC (20 minutes ago):

YBCG 301630Z AUTO 36013KT 9999 // BKN025 BKN034 23/21 Q1009

Closest aviation forecast (TAF) to Southport Airport

Forecast is more than 12 hours old.

Closest forecast is Gold Coast Airport, 16.2 nm (29.9 km) SSE. Retrieved 2020/10/29 18:00 UTC (23 hours ago):

TAF YBCG 291707Z 2918/3018 20005KT 9999 SCT010 BKN020 FM292300 02014KT CAVOK FM300900 34012KT 9999 SCT010 BKN020